sensor_id;sensor_type;location;lat;lon;timestamp;pressure;altitude;pressure_sealevel;temperature;humidity
44103;BME280;29769;42.178;24.742;2022-12-01T00:00:58;100106.03;;;6.25;100.00
44103;BME280;29769;42.178;24.742;2022-12-01T00:03:43;100103.38;;;6.21;100.00
44103;BME280;29769;42.178;24.742;2022-12-01T00:06:28;100095.53;;;6.22;100.00
44103;BME280;29769;42.178;24.742;2022-12-01T00:09:12;100100.81;;;6.32;100.00
44103;BME280;29769;42.178;24.742;2022-12-01T00:12:16;100093.06;;;6.41;100.00
44103;BME280;29769;42.178;24.742;2022-12-01T00:15:00;100090.41;;;6.36;100.00
44103;BME280;29769;42.178;24.742;2022-12-01T00:17:46;100087.88;;;6.44;100.00
44103;BME280;29769;42.178;24.742;2022-12-01T00:20:34;100084.44;;;6.51;100.00
44103;BME280;29769;42.178;24.742;2022-12-01T00:23:19;100081.84;;;6.55;100.00
44103;BME280;29769;42.178;24.742;2022-12-01T00:26:04;100085.38;;;6.63;100.00
44103;BME280;29769;42.178;24.742;2022-12-01T00:28:53;100085.41;;;6.62;100.00
44103;BME280;29769;42.178;24.742;2022-12-01T00:31:38;100082.78;;;6.62;100.00
44103;BME280;29769;42.178;24.742;2022-12-01T00:34:23;100088.91;;;6.65;100.00
44103;BME280;29769;42.178;24.742;2022-12-01T00:37:08;100082.81;;;6.65;100.00
44103;BME280;29769;42.178;24.742;2022-12-01T00:39:53;100083.72;;;6.73;100.00
44103;BME280;29769;42.178;24.742;2022-12-01T00:42:38;100088.03;;;6.68;100.00
44103;BME280;29769;42.178;24.742;2022-12-01T00:45:23;100077.59;;;6.72;100.00
44103;BME280;29769;42.178;24.742;2022-12-01T00:48:08;100085.44;;;6.69;100.00
44103;BME280;29769;42.178;24.742;2022-12-01T00:50:54;100083.69;;;6.67;100.00
44103;BME280;29769;42.178;24.742;2022-12-01T00:53:40;100080.16;;;6.63;100.00
44103;BME280;29769;42.178;24.742;2022-12-01T00:56:25;100076.69;;;6.64;100.00
44103;BME280;29769;42.178;24.742;2022-12-01T00:59:09;100071.44;;;6.61;100.00
44103;BME280;29769;42.178;24.742;2022-12-01T01:01:55;100068.81;;;6.57;100.00
44103;BME280;29769;42.178;24.742;2022-12-01T01:04:40;100068.81;;;6.57;100.00
44103;BME280;29769;42.178;24.742;2022-12-01T01:07:24;100063.50;;;6.43;100.00
44103;BME280;29769;42.178;24.742;2022-12-01T01:10:11;100066.09;;;6.40;100.00
44103;BME280;29769;42.178;24.742;2022-12-01T01:12:55;100056.41;;;6.32;100.00
44103;BME280;29769;42.178;24.742;2022-12-01T01:15:40;100058.16;;;6.30;100.00
44103;BME280;29769;42.178;24.742;2022-12-01T01:18:25;100059.06;;;6.36;100.00
44103;BME280;29769;42.178;24.742;2022-12-01T01:21:13;100049.50;;;6.37;100.00
44103;BME280;29769;42.178;24.742;2022-12-01T01:23:58;100056.47;;;6.35;100.00
44103;BME280;29769;42.178;24.742;2022-12-01T01:26:43;100040.72;;;6.25;100.00
44103;BME280;29769;42.178;24.742;2022-12-01T01:29:28;100046.00;;;6.36;100.00
44103;BME280;29769;42.178;24.742;2022-12-01T01:32:12;100039.91;;;6.37;100.00
44103;BME280;29769;42.178;24.742;2022-12-01T01:34:57;100033.81;;;6.37;100.00
44103;BME280;29769;42.178;24.742;2022-12-01T01:37:42;100030.38;;;6.42;100.00
44103;BME280;29769;42.178;24.742;2022-12-01T01:40:27;100026.91;;;6.46;100.00
44103;BME280;29769;42.178;24.742;2022-12-01T01:43:17;100032.16;;;6.45;100.00
44103;BME280;29769;42.178;24.742;2022-12-01T01:46:22;100017.28;;;6.38;100.00
44103;BME280;29769;42.178;24.742;2022-12-01T01:49:10;100034.72;;;6.42;100.00
44103;BME280;29769;42.178;24.742;2022-12-01T01:51:58;100032.13;;;6.40;100.00
44103;BME280;29769;42.178;24.742;2022-12-01T01:54:46;100029.47;;;6.39;100.00
44103;BME280;29769;42.178;24.742;2022-12-01T01:57:32;100028.53;;;6.29;100.00
44103;BME280;29769;42.178;24.742;2022-12-01T02:00:19;100036.31;;;6.20;100.00
44103;BME280;29769;42.178;24.742;2022-12-01T02:03:07;100041.59;;;6.29;100.00
44103;BME280;29769;42.178;24.742;2022-12-01T02:05:53;100035.56;;;6.38;100.00
44103;BME280;29769;42.178;24.742;2022-12-01T02:08:38;100040.00;;;6.45;100.00
44103;BME280;29769;42.178;24.742;2022-12-01T02:11:43;100035.66;;;6.48;100.00
44103;BME280;29769;42.178;24.742;2022-12-01T02:23:26;100018.28;;;6.56;100.00
44103;BME280;29769;42.178;24.742;2022-12-01T02:35:59;100012.06;;;6.38;100.00
44103;BME280;29769;42.178;24.742;2022-12-01T02:39:22;100004.13;;;6.24;100.00
44103;BME280;29769;42.178;24.742;2022-12-01T02:44:47;99998.09;;;6.31;100.00
44103;BME280;29769;42.178;24.742;2022-12-01T02:47:33;99998.94;;;6.32;100.00
44103;BME280;29769;42.178;24.742;2022-12-01T02:50:21;100001.50;;;6.22;100.00
44103;BME280;29769;42.178;24.742;2022-12-01T02:53:09;100001.47;;;6.19;100.00
44103;BME280;29769;42.178;24.742;2022-12-01T02:55:57;99998.84;;;6.16;100.00
44103;BME280;29769;42.178;24.742;2022-12-01T02:58:42;99999.75;;;6.20;100.00
44103;BME280;29769;42.178;24.742;2022-12-01T03:07:47;99990.97;;;6.12;100.00
44103;BME280;29769;42.178;24.742;2022-12-01T03:10:54;99998.72;;;5.98;100.00
44103;BME280;29769;42.178;24.742;2022-12-01T03:16:51;99990.88;;;5.98;100.00
44103;BME280;29769;42.178;24.742;2022-12-01T03:19:52;100003.94;;;6.01;100.00
44103;BME280;29769;42.178;24.742;2022-12-01T03:22:44;99996.06;;;5.95;100.00
44103;BME280;29769;42.178;24.742;2022-12-01T03:25:30;100002.13;;;5.90;100.00
44103;BME280;29769;42.178;24.742;2022-12-01T03:28:21;99989.09;;;5.93;100.00
44103;BME280;29769;42.178;24.742;2022-12-01T03:31:11;99991.75;;;5.97;100.00
44103;BME280;29769;42.178;24.742;2022-12-01T03:34:03;99986.47;;;5.90;100.00
44103;BME280;29769;42.178;24.742;2022-12-01T03:36:56;99986.50;;;5.94;100.00
44103;BME280;29769;42.178;24.742;2022-12-01T03:39:43;99989.94;;;5.89;100.00
44103;BME280;29769;42.178;24.742;2022-12-01T03:42:34;99999.53;;;5.90;100.00
44103;BME280;29769;42.178;24.742;2022-12-01T03:45:27;99988.94;;;5.79;100.00
44103;BME280;29769;42.178;24.742;2022-12-01T03:48:14;99996.03;;;5.91;100.00
44103;BME280;29769;42.178;24.742;2022-12-01T03:51:08;100002.09;;;5.87;100.00
44103;BME280;29769;42.178;24.742;2022-12-01T03:57:02;99995.91;;;5.81;100.00
44103;BME280;29769;42.178;24.742;2022-12-01T03:59:48;99995.91;;;5.78;100.00
44103;BME280;29769;42.178;24.742;2022-12-01T04:02:32;99995.00;;;5.78;100.00
44103;BME280;29769;42.178;24.742;2022-12-01T04:05:17;99994.19;;;5.80;100.00
44103;BME280;29769;42.178;24.742;2022-12-01T04:08:02;99995.06;;;5.81;100.00
44103;BME280;29769;42.178;24.742;2022-12-01T04:10:47;99994.19;;;5.82;100.00
44103;BME280;29769;42.178;24.742;2022-12-01T04:13:32;99990.72;;;5.83;100.00
44103;BME280;29769;42.178;24.742;2022-12-01T04:16:17;99994.22;;;5.85;100.00
44103;BME280;29769;42.178;24.742;2022-12-01T04:19:02;99997.69;;;5.84;100.00
44103;BME280;29769;42.178;24.742;2022-12-01T04:21:47;100002.09;;;5.88;100.00
44103;BME280;29769;42.178;24.742;2022-12-01T04:24:31;99993.34;;;5.85;100.00
44103;BME280;29769;42.178;24.742;2022-12-01T04:27:17;99978.50;;;5.76;100.00
44103;BME280;29769;42.178;24.742;2022-12-01T04:30:07;100000.41;;;5.90;100.00
44103;BME280;29769;42.178;24.742;2022-12-01T04:32:52;99995.97;;;5.85;100.00
44103;BME280;29769;42.178;24.742;2022-12-01T04:35:37;99996.81;;;5.83;100.00
44103;BME280;29769;42.178;24.742;2022-12-01T04:38:22;99996.75;;;5.77;100.00
44103;BME280;29769;42.178;24.742;2022-12-01T04:41:11;100004.59;;;5.79;100.00
44103;BME280;29769;42.178;24.742;2022-12-01T04:43:56;99998.44;;;5.71;100.00
44103;BME280;29769;42.178;24.742;2022-12-01T04:46:41;100001.03;;;5.72;100.00
44103;BME280;29769;42.178;24.742;2022-12-01T04:49:26;100000.25;;;5.78;100.00
44103;BME280;29769;42.178;24.742;2022-12-01T04:52:11;100001.16;;;5.86;100.00
44103;BME280;29769;42.178;24.742;2022-12-01T04:54:55;99999.53;;;5.90;100.00
44103;BME280;29769;42.178;24.742;2022-12-01T04:57:41;100000.34;;;5.87;100.00
44103;BME280;29769;42.178;24.742;2022-12-01T05:00:25;100000.22;;;5.75;100.00
44103;BME280;29769;42.178;24.742;2022-12-01T05:03:10;99992.38;;;5.73;100.00
44103;BME280;29769;42.178;24.742;2022-12-01T05:06:05;100002.00;;;5.79;100.00
44103;BME280;29769;42.178;24.742;2022-12-01T05:08:54;99992.38;;;5.72;100.00
44103;BME280;29769;42.178;24.742;2022-12-01T05:11:40;100003.66;;;5.69;100.00
44103;BME280;29769;42.178;24.742;2022-12-01T05:14:25;100005.34;;;5.66;100.00
44103;BME280;29769;42.178;24.742;2022-12-01T05:17:10;100004.44;;;5.64;100.00
44103;BME280;29769;42.178;24.742;2022-12-01T05:19:55;100008.81;;;5.65;100.00
44103;BME280;29769;42.178;24.742;2022-12-01T05:22:58;100006.19;;;5.63;100.00
44103;BME280;29769;42.178;24.742;2022-12-01T05:25:43;100010.59;;;5.67;100.00
44103;BME280;29769;42.178;24.742;2022-12-01T05:28:29;100001.91;;;5.70;100.00
44103;BME280;29769;42.178;24.742;2022-12-01T05:31:14;100005.41;;;5.70;100.00
44103;BME280;29769;42.178;24.742;2022-12-01T05:33:59;99991.38;;;5.61;100.00
44103;BME280;29769;42.178;24.742;2022-12-01T05:36:43;100002.81;;;5.73;100.00
44103;BME280;29769;42.178;24.742;2022-12-01T05:39:28;100014.97;;;5.73;100.00
44103;BME280;29769;42.178;24.742;2022-12-01T05:42:13;100007.16;;;5.73;100.00
44103;BME280;29769;42.178;24.742;2022-12-01T05:44:58;99997.63;;;5.75;100.00
44103;BME280;29769;42.178;24.742;2022-12-01T05:47:43;100014.19;;;5.80;100.00
44103;BME280;29769;42.178;24.742;2022-12-01T05:50:29;100002.91;;;5.81;100.00
44103;BME280;29769;42.178;24.742;2022-12-01T05:53:14;100015.06;;;5.80;100.00
44103;BME280;29769;42.178;24.742;2022-12-01T05:55:59;100003.75;;;5.81;100.00
44103;BME280;29769;42.178;24.742;2022-12-01T05:58:43;100009.84;;;5.80;100.00
44103;BME280;29769;42.178;24.742;2022-12-01T06:01:28;100010.72;;;5.81;100.00
44103;BME280;29769;42.178;24.742;2022-12-01T06:04:13;100000.22;;;5.72;100.00
44103;BME280;29769;42.178;24.742;2022-12-01T06:06:58;100018.56;;;5.84;100.00
44103;BME280;29769;42.178;24.742;2022-12-01T06:09:43;100025.53;;;5.83;100.00
44103;BME280;29769;42.178;24.742;2022-12-01T06:12:29;100022.91;;;5.82;100.00
44103;BME280;29769;42.178;24.742;2022-12-01T06:15:14;100026.34;;;5.76;100.00
44103;BME280;29769;42.178;24.742;2022-12-01T06:17:59;100019.34;;;5.74;100.00
44103;BME280;29769;42.178;24.742;2022-12-01T06:20:44;100017.59;;;5.71;100.00
44103;BME280;29769;42.178;24.742;2022-12-01T06:23:29;100025.44;;;5.71;100.00
44103;BME280;29769;42.178;24.742;2022-12-01T06:26:14;100033.16;;;5.64;100.00
44103;BME280;29769;42.178;24.742;2022-12-01T06:28:59;100025.38;;;5.68;100.00
44103;BME280;29769;42.178;24.742;2022-12-01T06:31:44;100045.34;;;5.62;100.00
44103;BME280;29769;42.178;24.742;2022-12-01T06:34:28;100036.63;;;5.61;100.00
44103;BME280;29769;42.178;24.742;2022-12-01T06:37:13;100033.94;;;5.52;100.00
44103;BME280;29769;42.178;24.742;2022-12-01T06:40:01;100038.25;;;5.50;100.00
44103;BME280;29769;42.178;24.742;2022-12-01T06:42:47;100045.13;;;5.45;100.00
44103;BME280;29769;42.178;24.742;2022-12-01T06:45:32;100031.19;;;5.42;100.00
44103;BME280;29769;42.178;24.742;2022-12-01T06:48:17;100044.28;;;5.46;100.00
44103;BME280;29769;42.178;24.742;2022-12-01T06:51:02;100035.59;;;5.47;100.00
44103;BME280;29769;42.178;24.742;2022-12-01T06:53:47;100045.19;;;5.50;100.00
44103;BME280;29769;42.178;24.742;2022-12-01T06:56:32;100050.44;;;5.51;100.00
44103;BME280;29769;42.178;24.742;2022-12-01T06:59:17;100039.16;;;5.54;100.00
44103;BME280;29769;42.178;24.742;2022-12-01T07:02:03;100038.28;;;5.55;100.00
44103;BME280;29769;42.178;24.742;2022-12-01T07:04:48;100039.16;;;5.55;100.00
44103;BME280;29769;42.178;24.742;2022-12-01T07:07:37;100041.81;;;5.58;100.00
44103;BME280;29769;42.178;24.742;2022-12-01T07:10:22;100048.84;;;5.65;100.00
44103;BME280;29769;42.178;24.742;2022-12-01T07:13:07;100045.41;;;5.69;100.00
44103;BME280;29769;42.178;24.742;2022-12-01T07:15:51;100040.19;;;5.69;100.00
44103;BME280;29769;42.178;24.742;2022-12-01T07:18:36;100037.56;;;5.69;100.00
44103;BME280;29769;42.178;24.742;2022-12-01T07:21:22;100047.94;;;5.63;100.00
44103;BME280;29769;42.178;24.742;2022-12-01T07:24:08;100044.47;;;5.64;100.00
44103;BME280;29769;42.178;24.742;2022-12-01T07:26:53;100044.53;;;5.70;100.00
44103;BME280;29769;42.178;24.742;2022-12-01T07:29:38;100041.03;;;5.68;100.00
44103;BME280;29769;42.178;24.742;2022-12-01T07:32:23;100044.56;;;5.73;100.00
44103;BME280;29769;42.178;24.742;2022-12-01T07:35:08;100041.91;;;5.67;100.00
44103;BME280;29769;42.178;24.742;2022-12-01T07:37:54;100042.72;;;5.63;100.00
44103;BME280;29769;42.178;24.742;2022-12-01T07:40:40;100041.84;;;5.61;100.00
44103;BME280;29769;42.178;24.742;2022-12-01T07:43:24;100059.31;;;5.67;100.00
44103;BME280;29769;42.178;24.742;2022-12-01T07:46:14;100051.50;;;5.70;100.00
44103;BME280;29769;42.178;24.742;2022-12-01T07:49:00;100053.28;;;5.74;100.00
44103;BME280;29769;42.178;24.742;2022-12-01T07:51:45;100042.81;;;5.72;100.00
44103;BME280;29769;42.178;24.742;2022-12-01T07:54:29;100044.63;;;5.78;100.00
44103;BME280;29769;42.178;24.742;2022-12-01T07:57:14;100051.56;;;5.77;100.00
44103;BME280;29769;42.178;24.742;2022-12-01T07:59:59;100050.75;;;5.83;100.00
44103;BME280;29769;42.178;24.742;2022-12-01T08:02:47;100053.47;;;5.89;100.00
44103;BME280;29769;42.178;24.742;2022-12-01T08:05:32;100056.13;;;5.94;100.00
44103;BME280;29769;42.178;24.742;2022-12-01T08:08:16;100052.50;;;5.84;100.00
44103;BME280;29769;42.178;24.742;2022-12-01T08:11:04;100049.00;;;5.82;100.00
44103;BME280;29769;42.178;24.742;2022-12-01T08:13:50;100043.75;;;5.76;100.00
44103;BME280;29769;42.178;24.742;2022-12-01T08:16:35;100057.69;;;5.79;100.00
44103;BME280;29769;42.178;24.742;2022-12-01T08:19:20;100061.09;;;5.74;100.00
44103;BME280;29769;42.178;24.742;2022-12-01T08:22:05;100067.22;;;5.77;100.00
44103;BME280;29769;42.178;24.742;2022-12-01T08:24:50;100059.34;;;5.73;100.00
44103;BME280;29769;42.178;24.742;2022-12-01T08:27:35;100056.59;;;5.59;100.00
44103;BME280;29769;42.178;24.742;2022-12-01T08:30:20;100055.78;;;5.63;100.00
44103;BME280;29769;42.178;24.742;2022-12-01T08:33:05;100061.00;;;5.65;100.00
44103;BME280;29769;42.178;24.742;2022-12-01T08:35:49;100052.31;;;5.63;100.00
44103;BME280;29769;42.178;24.742;2022-12-01T08:38:34;100050.63;;;5.69;100.00
44103;BME280;29769;42.178;24.742;2022-12-01T08:41:19;100046.31;;;5.73;100.00
44103;BME280;29769;42.178;24.742;2022-12-01T08:44:04;100043.72;;;5.74;100.00
44103;BME280;29769;42.178;24.742;2022-12-01T08:46:49;100039.28;;;5.66;100.00
44103;BME280;29769;42.178;24.742;2022-12-01T08:49:34;100028.00;;;5.70;100.00
44103;BME280;29769;42.178;24.742;2022-12-01T08:52:19;100041.16;;;5.80;100.00
44103;BME280;29769;42.178;24.742;2022-12-01T08:55:04;100036.91;;;5.87;100.00
44103;BME280;29769;42.178;24.742;2022-12-01T08:57:49;100035.22;;;5.92;100.00
44103;BME280;29769;42.178;24.742;2022-12-01T09:00:34;100034.31;;;5.89;100.00
44103;BME280;29769;42.178;24.742;2022-12-01T09:03:19;100034.38;;;5.96;100.00
44103;BME280;29769;42.178;24.742;2022-12-01T09:06:09;100024.75;;;5.92;100.00
44103;BME280;29769;42.178;24.742;2022-12-01T09:08:53;100027.28;;;5.85;100.00
44103;BME280;29769;42.178;24.742;2022-12-01T09:11:39;100023.00;;;5.88;100.00
44103;BME280;29769;42.178;24.742;2022-12-01T09:14:24;100027.41;;;5.97;100.00
44103;BME280;29769;42.178;24.742;2022-12-01T09:17:09;100023.94;;;5.95;100.00
44103;BME280;29769;42.178;24.742;2022-12-01T09:19:54;100024.78;;;5.95;100.00
44103;BME280;29769;42.178;24.742;2022-12-01T09:22:39;100021.38;;;5.99;100.00
44103;BME280;29769;42.178;24.742;2022-12-01T09:25:24;100024.97;;;6.16;100.00
44103;BME280;29769;42.178;24.742;2022-12-01T09:28:09;100024.13;;;6.17;100.00
44103;BME280;29769;42.178;24.742;2022-12-01T09:30:54;100015.34;;;6.14;100.00
44103;BME280;29769;42.178;24.742;2022-12-01T09:33:38;100006.69;;;6.16;100.00
44103;BME280;29769;42.178;24.742;2022-12-01T09:36:23;100012.00;;;6.30;100.00
44103;BME280;29769;42.178;24.742;2022-12-01T09:39:16;100007.69;;;6.37;100.00
44103;BME280;29769;42.178;24.742;2022-12-01T09:42:06;100002.56;;;6.49;100.00
44103;BME280;29769;42.178;24.742;2022-12-01T09:44:53;99987.72;;;6.45;100.00
44103;BME280;29769;42.178;24.742;2022-12-01T09:47:39;100006.19;;;6.78;100.00
44103;BME280;29769;42.178;24.742;2022-12-01T09:50:26;100001.88;;;6.85;100.00
44103;BME280;29769;42.178;24.742;2022-12-01T09:53:17;99994.94;;;6.93;100.00
44103;BME280;29769;42.178;24.742;2022-12-01T09:56:04;100000.13;;;6.85;100.00
44103;BME280;29769;42.178;24.742;2022-12-01T09:58:52;99999.28;;;6.92;100.00
44103;BME280;29769;42.178;24.742;2022-12-01T10:01:42;99998.44;;;6.95;100.00
44103;BME280;29769;42.178;24.742;2022-12-01T10:04:32;99995.84;;;7.02;100.00
44103;BME280;29769;42.178;24.742;2022-12-01T10:07:23;99994.97;;;7.06;100.00
44103;BME280;29769;42.178;24.742;2022-12-01T10:10:15;99979.25;;;6.94;100.00
44103;BME280;29769;42.178;24.742;2022-12-01T10:13:01;99993.22;;;7.01;100.00
44103;BME280;29769;42.178;24.742;2022-12-01T10:18:57;99995.69;;;6.66;100.00
44103;BME280;29769;42.178;24.742;2022-12-01T10:22:18;99990.41;;;6.54;100.00
44103;BME280;29769;42.178;24.742;2022-12-01T10:25:22;99989.50;;;6.52;100.00
44103;BME280;29769;42.178;24.742;2022-12-01T10:28:24;99986.94;;;6.58;100.00
44103;BME280;29769;42.178;24.742;2022-12-01T10:31:20;99986.97;;;6.70;100.00
44103;BME280;29769;42.178;24.742;2022-12-01T10:34:15;99980.88;;;6.66;100.00
44103;BME280;29769;42.178;24.742;2022-12-01T10:37:01;99979.03;;;6.50;100.00
44103;BME280;29769;42.178;24.742;2022-12-01T10:39:47;99984.25;;;6.47;100.00
44103;BME280;29769;42.178;24.742;2022-12-01T10:42:49;99982.47;;;6.40;100.00
44103;BME280;29769;42.178;24.742;2022-12-01T10:45:39;99972.06;;;6.45;100.00
44103;BME280;29769;42.178;24.742;2022-12-01T10:48:24;99977.34;;;6.58;100.00
44103;BME280;29769;42.178;24.742;2022-12-01T10:51:14;99961.69;;;6.69;100.00
44103;BME280;29769;42.178;24.742;2022-12-01T10:54:06;99966.94;;;6.74;100.00
44103;BME280;29769;42.178;24.742;2022-12-01T10:56:55;99962.56;;;6.66;100.00
44103;BME280;29769;42.178;24.742;2022-12-01T11:02:34;99948.59;;;6.60;100.00
44103;BME280;29769;42.178;24.742;2022-12-01T11:05:25;99964.34;;;6.78;100.00
44103;BME280;29769;42.178;24.742;2022-12-01T11:11:34;99959.13;;;6.78;100.00
44103;BME280;29769;42.178;24.742;2022-12-01T11:14:23;99951.19;;;6.60;100.00
44103;BME280;29769;42.178;24.742;2022-12-01T11:20:25;99962.50;;;6.54;100.00
44103;BME280;29769;42.178;24.742;2022-12-01T11:26:14;99953.03;;;6.79;100.00
44103;BME280;29769;42.178;24.742;2022-12-01T11:31:50;99946.13;;;6.95;100.00
44103;BME280;29769;42.178;24.742;2022-12-01T11:34:36;99942.66;;;7.06;100.00
44103;BME280;29769;42.178;24.742;2022-12-01T11:37:24;99953.16;;;7.11;100.00
44103;BME280;29769;42.178;24.742;2022-12-01T11:43:05;99943.56;;;7.14;100.00
44103;BME280;29769;42.178;24.742;2022-12-01T11:45:52;99945.22;;;6.88;100.00
44103;BME280;29769;42.178;24.742;2022-12-01T11:48:38;99942.59;;;6.91;100.00
44103;BME280;29769;42.178;24.742;2022-12-01T11:51:30;99950.47;;;6.90;100.00
44103;BME280;29769;42.178;24.742;2022-12-01T11:54:18;99946.03;;;6.70;100.00
44103;BME280;29769;42.178;24.742;2022-12-01T11:57:06;99949.44;;;6.56;100.00
44103;BME280;29769;42.178;24.742;2022-12-01T11:59:52;99955.47;;;6.43;100.00
44103;BME280;29769;42.178;24.742;2022-12-01T12:05:50;99956.38;;;6.45;100.00
44103;BME280;29769;42.178;24.742;2022-12-01T12:23:05;99946.81;;;6.54;100.00
44103;BME280;29769;42.178;24.742;2022-12-01T12:26:13;99932.03;;;6.56;100.00
44103;BME280;29769;42.178;24.742;2022-12-01T12:32:46;99952.19;;;6.80;100.00
44103;BME280;29769;42.178;24.742;2022-12-01T12:38:44;99941.69;;;6.79;100.00
44103;BME280;29769;42.178;24.742;2022-12-01T12:41:37;99942.66;;;7.02;100.00
44103;BME280;29769;42.178;24.742;2022-12-01T12:44:48;99939.19;;;7.10;100.00
44103;BME280;29769;42.178;24.742;2022-12-01T12:50:58;99937.44;;;7.09;100.00
44103;BME280;29769;42.178;24.742;2022-12-01T12:53:51;99943.53;;;7.02;100.00
44103;BME280;29769;42.178;24.742;2022-12-01T12:56:45;99935.72;;;7.13;100.00
44103;BME280;29769;42.178;24.742;2022-12-01T12:59:49;99929.59;;;7.14;100.00
44103;BME280;29769;42.178;24.742;2022-12-01T13:03:00;99931.34;;;7.23;100.00
44103;BME280;29769;42.178;24.742;2022-12-01T13:05:59;99927.88;;;7.11;100.00
44103;BME280;29769;42.178;24.742;2022-12-01T13:08:49;99923.53;;;7.17;100.00
44103;BME280;29769;42.178;24.742;2022-12-01T13:11:44;99926.13;;;7.15;100.00
44103;BME280;29769;42.178;24.742;2022-12-01T13:14:48;99922.63;;;7.07;100.00
44103;BME280;29769;42.178;24.742;2022-12-01T13:17:38;99927.88;;;7.18;100.00
44103;BME280;29769;42.178;24.742;2022-12-01T13:20:26;99937.47;;;7.19;100.00
44103;BME280;29769;42.178;24.742;2022-12-01T13:23:15;99926.13;;;7.23;100.00
44103;BME280;29769;42.178;24.742;2022-12-01T13:26:04;99935.72;;;7.16;100.00
44103;BME280;29769;42.178;24.742;2022-12-01T13:28:54;99923.50;;;7.13;100.00
44103;BME280;29769;42.178;24.742;2022-12-01T13:31:42;99926.97;;;7.03;100.00
44103;BME280;29769;42.178;24.742;2022-12-01T13:34:35;99933.88;;;6.88;100.00
44103;BME280;29769;42.178;24.742;2022-12-01T13:37:33;99943.41;;;6.74;100.00
44103;BME280;29769;42.178;24.742;2022-12-01T13:40:26;99937.41;;;6.93;100.00
44103;BME280;29769;42.178;24.742;2022-12-01T13:43:20;99937.41;;;6.97;100.00
44103;BME280;29769;42.178;24.742;2022-12-01T13:46:19;99932.13;;;6.84;100.00
44103;BME280;29769;42.178;24.742;2022-12-01T13:49:32;99933.91;;;6.89;100.00
44103;BME280;29769;42.178;24.742;2022-12-01T14:00:41;99946.94;;;6.86;100.00
44103;BME280;29769;42.178;24.742;2022-12-01T14:03:36;99942.63;;;6.96;100.00
44103;BME280;29769;42.178;24.742;2022-12-01T14:06:28;99941.75;;;6.97;100.00
44103;BME280;29769;42.178;24.742;2022-12-01T14:09:31;99939.13;;;6.88;100.00
44103;BME280;29769;42.178;24.742;2022-12-01T14:12:22;99939.94;;;6.67;100.00
44103;BME280;29769;42.178;24.742;2022-12-01T14:21:07;99947.78;;;6.78;100.00
44103;BME280;29769;42.178;24.742;2022-12-01T14:23:59;99949.50;;;6.72;100.00
44103;BME280;29769;42.178;24.742;2022-12-01T14:26:45;99949.53;;;6.76;100.00
44103;BME280;29769;42.178;24.742;2022-12-01T14:29:34;99917.22;;;6.54;100.00
44103;BME280;29769;42.178;24.742;2022-12-01T14:32:22;99939.00;;;6.63;100.00
44103;BME280;29769;42.178;24.742;2022-12-01T14:35:10;99948.59;;;6.61;100.00
44103;BME280;29769;42.178;24.742;2022-12-01T14:37:58;99947.69;;;6.52;100.00
44103;BME280;29769;42.178;24.742;2022-12-01T14:40:43;99947.69;;;6.49;100.00
44103;BME280;29769;42.178;24.742;2022-12-01T14:43:27;99952.91;;;6.49;100.00
44103;BME280;29769;42.178;24.742;2022-12-01T14:46:42;99877.75;;;6.02;100.00
44103;BME280;29769;42.178;24.742;2022-12-01T14:52:35;99952.00;;;6.44;100.00
44103;BME280;29769;42.178;24.742;2022-12-01T14:55:25;99955.41;;;6.34;100.00
44103;BME280;29769;42.178;24.742;2022-12-01T14:58:17;99934.47;;;6.28;100.00
44103;BME280;29769;42.178;24.742;2022-12-01T15:01:09;99953.69;;;6.37;100.00
44103;BME280;29769;42.178;24.742;2022-12-01T15:03:57;99962.38;;;6.36;100.00
44103;BME280;29769;42.178;24.742;2022-12-01T15:06:43;99951.09;;;6.42;100.00
44103;BME280;29769;42.178;24.742;2022-12-01T15:09:28;99963.34;;;6.50;100.00
44103;BME280;29769;42.178;24.742;2022-12-01T15:12:25;99964.22;;;6.51;100.00
44103;BME280;29769;42.178;24.742;2022-12-01T15:15:18;99909.19;;;6.19;100.00
44103;BME280;29769;42.178;24.742;2022-12-01T15:18:19;99961.56;;;6.40;100.00
44103;BME280;29769;42.178;24.742;2022-12-01T15:26:47;99966.00;;;6.56;100.00
44103;BME280;29769;42.178;24.742;2022-12-01T15:29:41;99969.50;;;6.58;100.00
44103;BME280;29769;42.178;24.742;2022-12-01T15:32:30;99972.91;;;6.50;100.00
44103;BME280;29769;42.178;24.742;2022-12-01T15:35:21;99972.91;;;6.44;100.00
44103;BME280;29769;42.178;24.742;2022-12-01T15:38:11;99972.06;;;6.49;100.00
44103;BME280;29769;42.178;24.742;2022-12-01T15:41:00;99978.19;;;6.53;100.00
44103;BME280;29769;42.178;24.742;2022-12-01T15:43:54;99972.91;;;6.44;100.00
44103;BME280;29769;42.178;24.742;2022-12-01T15:46:39;99973.72;;;6.34;100.00
44103;BME280;29769;42.178;24.742;2022-12-01T15:49:29;99971.06;;;6.26;100.00
44103;BME280;29769;42.178;24.742;2022-12-01T15:52:16;99975.44;;;6.33;100.00
44103;BME280;29769;42.178;24.742;2022-12-01T15:55:03;99979.84;;;6.39;100.00
44103;BME280;29769;42.178;24.742;2022-12-01T15:57:50;99978.13;;;6.47;100.00
44103;BME280;29769;42.178;24.742;2022-12-01T16:00:34;99979.91;;;6.51;100.00
44103;BME280;29769;42.178;24.742;2022-12-01T16:03:20;99969.47;;;6.49;100.00
44103;BME280;29769;42.178;24.742;2022-12-01T16:06:10;99977.31;;;6.49;100.00
44103;BME280;29769;42.178;24.742;2022-12-01T16:09:05;99979.94;;;6.54;100.00
44103;BME280;29769;42.178;24.742;2022-12-01T16:17:55;99985.97;;;6.45;100.00
44103;BME280;29769;42.178;24.742;2022-12-01T16:20:41;99981.63;;;6.44;100.00
44103;BME280;29769;42.178;24.742;2022-12-01T16:23:26;99990.34;;;6.48;100.00
44103;BME280;29769;42.178;24.742;2022-12-01T16:26:11;99985.88;;;6.29;100.00